Time;durP1;ratioP1;P1;durP2;ratioP2;P2;SDS_P1;SDS_P2;PMS_P1;PMS_P2;Temp;Humidity;BMP_temperature;BMP_pressure;BME280_temperature;BME280_humidity;BME280_pressure;Samples;Min_cycle;Max_cycle;Signal;HPM_P1;HPM_P2
2023/08/13 00:01:11;;;;;;;7.20;5.00;;;;;;;11.92;100.00;97872.07;110439;1242;58887;-69
2023/08/13 00:03:42;;;;;;;5.10;4.20;;;;;;;11.89;100.00;97871.54;110374;1241;58817;-69
2023/08/13 00:06:12;;;;;;;6.00;4.40;;;;;;;11.87;100.00;97866.12;110410;1242;70948;-67
2023/08/13 00:08:43;;;;;;;5.10;4.10;;;;;;;11.85;100.00;97869.27;110522;1242;68474;-69
2023/08/13 00:11:13;;;;;;;5.80;3.80;;;;;;;11.82;100.00;97865.73;110376;1241;69167;-69
2023/08/13 00:13:44;;;;;;;4.50;3.60;;;;;;;11.80;100.00;97872.68;110446;1245;58884;-69
2023/08/13 00:16:14;;;;;;;6.60;5.20;;;;;;;11.79;100.00;97869.09;110289;1242;58840;-68
2023/08/13 00:18:45;;;;;;;7.20;4.90;;;;;;;11.80;100.00;97868.02;110377;1242;70455;-68
2023/08/13 00:21:17;;;;;;;6.40;5.10;;;;;;;11.78;100.00;97863.92;110489;1245;69264;-68
2023/08/13 00:23:50;;;;;;;5.80;4.30;;;;;;;11.78;100.00;97863.92;110547;1240;69112;-68
2023/08/13 00:26:24;;;;;;;6.10;4.40;;;;;;;11.76;100.00;97863.41;110483;1242;58945;-67
2023/08/13 00:28:54;;;;;;;5.30;4.60;;;;;;;11.75;100.00;97862.21;110426;1241;58899;-67
2023/08/13 00:31:24;;;;;;;6.60;5.00;;;;;;;11.74;100.00;97864.73;110542;1242;70516;-67
2023/08/13 00:33:54;;;;;;;6.50;5.10;;;;;;;11.71;100.00;97863.19;110468;1242;69249;-67
2023/08/13 00:36:24;;;;;;;6.70;5.20;;;;;;;11.68;100.00;97862.89;110500;1242;68701;-67
2023/08/13 00:38:55;;;;;;;5.80;4.40;;;;;;;11.64;100.00;97862.98;110183;1242;58962;-69
2023/08/13 00:41:25;;;;;;;6.20;4.70;;;;;;;11.61;100.00;97860.09;110209;1245;58844;-70
2023/08/13 00:43:56;;;;;;;5.90;4.70;;;;;;;11.58;100.00;97861.98;110433;1242;70493;-69
2023/08/13 00:46:26;;;;;;;5.20;4.30;;;;;;;11.55;100.00;97863.48;110430;1242;69220;-67
2023/08/13 00:48:59;;;;;;;7.00;4.90;;;;;;;11.52;100.00;97861.58;110389;1241;69297;-69
2023/08/13 00:51:30;;;;;;;5.90;4.50;;;;;;;11.48;100.00;97865.33;110376;1242;58943;-69
2023/08/13 00:54:03;;;;;;;5.60;4.10;;;;;;;11.45;100.00;97862.01;110478;1241;58881;-67
2023/08/13 00:56:36;;;;;;;6.40;4.40;;;;;;;11.43;100.00;97863.60;110264;1241;70582;-68
2023/08/13 00:59:07;;;;;;;5.20;4.10;;;;;;;11.40;100.00;97859.43;110244;1242;69234;-69
2023/08/13 01:01:42;;;;;;;5.60;4.00;;;;;;;11.38;100.00;97861.15;110397;1241;68528;-69
2023/08/13 01:04:13;;;;;;;5.40;4.00;;;;;;;11.35;100.00;97855.27;110155;1242;58891;-68
2023/08/13 01:06:55;;;;;;;5.00;3.60;;;;;;;11.33;100.00;97853.30;110238;1242;58904;-68
2023/08/13 01:10:08;;;;;;;5.50;4.20;;;;;;;11.31;100.00;97855.13;110240;1242;70435;-69
2023/08/13 01:12:46;;;;;;;5.50;3.80;;;;;;;11.29;100.00;97853.01;110167;1242;69306;-69
2023/08/13 01:15:24;;;;;;;6.50;4.10;;;;;;;11.28;100.00;97853.61;110416;1243;69245;-66
2023/08/13 01:17:58;;;;;;;;;;;;;;;11.27;100.00;97850.38;110310;1246;58937;-69
2023/08/13 01:20:31;;;;;;;6.00;4.50;;;;;;;11.26;100.00;97849.25;110309;1241;58880;-68
2023/08/13 01:23:03;;;;;;;5.10;4.00;;;;;;;11.22;100.00;97848.95;110335;1242;70603;-68
2023/08/13 01:25:36;;;;;;;5.20;4.00;;;;;;;11.21;100.00;97851.83;110348;1241;68372;-69
2023/08/13 01:28:31;;;;;;;5.20;3.90;;;;;;;11.18;100.00;97853.05;110209;1242;69304;-69
2023/08/13 01:31:11;;;;;;;4.60;3.70;;;;;;;11.16;100.00;97854.21;110263;1241;58868;-68
2023/08/13 01:33:45;;;;;;;5.00;4.00;;;;;;;11.15;100.00;97851.50;110243;1242;58865;-69
2023/08/13 01:36:17;;;;;;;5.80;4.50;;;;;;;11.14;100.00;97855.27;110199;1245;70887;-69
2023/08/13 01:38:56;;;;;;;5.30;4.40;;;;;;;11.13;100.00;97853.59;110577;1242;69677;-69
2023/08/13 01:41:56;;;;;;;6.30;4.70;;;;;;;11.09;100.00;97847.60;110444;1242;68271;-69
2023/08/13 01:44:31;;;;;;;5.50;4.30;;;;;;;11.03;100.00;97849.23;110404;1242;58931;-69
2023/08/13 01:47:04;;;;;;;5.80;4.90;;;;;;;11.01;100.00;97850.94;110415;1241;58823;-68
2023/08/13 01:49:36;;;;;;;6.70;4.80;;;;;;;10.96;100.00;97851.45;110547;1241;69593;-67
2023/08/13 01:52:07;;;;;;;7.10;4.70;;;;;;;10.92;100.00;97853.07;110592;1242;69069;-67
2023/08/13 01:54:37;;;;;;;5.40;4.20;;;;;;;10.88;100.00;97854.57;110302;1243;69665;-67
2023/08/13 01:57:10;;;;;;;5.30;3.90;;;;;;;10.83;100.00;97855.95;110356;1242;58938;-68
2023/08/13 01:59:42;;;;;;;5.50;4.20;;;;;;;10.80;100.00;97852.55;110218;1242;58833;-67
2023/08/13 02:02:13;;;;;;;6.40;4.00;;;;;;;10.74;100.00;97853.45;110418;1242;68887;-68
2023/08/13 02:04:45;;;;;;;4.90;3.90;;;;;;;10.70;100.00;97853.17;110445;1243;69255;-67
2023/08/13 02:07:17;;;;;;;4.90;3.80;;;;;;;10.67;100.00;97854.42;110335;1242;68493;-67
2023/08/13 02:09:50;;;;;;;5.60;3.50;;;;;;;10.65;100.00;97852.13;110237;1248;58863;-67
2023/08/13 02:12:23;;;;;;;6.40;5.20;;;;;;;10.63;100.00;97855.18;110232;1241;58867;-68
2023/08/13 02:14:56;;;;;;;5.90;4.30;;;;;;;10.62;100.00;97855.98;110134;1246;69798;-68
2023/08/13 02:17:28;;;;;;;5.80;4.50;;;;;;;10.61;100.00;97854.63;110294;1242;69257;-68
2023/08/13 02:19:59;;;;;;;6.80;5.30;;;;;;;10.58;100.00;97853.27;110413;1242;69179;-68
2023/08/13 02:22:31;;;;;;;6.40;5.20;;;;;;;10.57;100.00;97852.44;110381;1242;58860;-68
2023/08/13 02:25:02;;;;;;;5.00;4.30;;;;;;;10.56;100.00;97857.41;110418;1243;58878;-68
2023/08/13 02:27:34;;;;;;;5.10;4.30;;;;;;;10.53;100.00;97853.62;110372;1242;70436;-68
2023/08/13 02:30:06;;;;;;;5.70;4.00;;;;;;;10.51;100.00;97856.20;110417;1242;69239;-68
2023/08/13 02:32:43;;;;;;;5.10;4.40;;;;;;;10.45;100.00;97856.22;110172;1244;68503;-67
2023/08/13 02:35:18;;;;;;;6.30;5.20;;;;;;;10.40;100.00;97855.32;110126;1245;58913;-69
2023/08/13 02:37:51;;;;;;;6.10;4.20;;;;;;;10.38;100.00;97853.88;110261;1249;58867;-69
2023/08/13 02:40:24;;;;;;;6.50;4.70;;;;;;;10.37;100.00;97859.20;110374;1241;70592;-68
2023/08/13 02:42:58;;;;;;;5.30;4.40;;;;;;;10.35;100.00;97858.11;110434;1242;69218;-67
2023/08/13 02:45:33;;;;;;;7.80;4.50;;;;;;;10.32;100.00;97857.59;110341;1242;68478;-69
2023/08/13 02:48:03;;;;;;;5.50;4.10;;;;;;;10.30;100.00;97859.63;110512;1243;58870;-69
2023/08/13 02:50:35;;;;;;;6.00;4.00;;;;;;;10.29;100.00;97862.51;110377;1242;58848;-66
2023/08/13 02:53:06;;;;;;;5.10;3.60;;;;;;;10.29;100.00;97863.91;110542;1241;69858;-67
2023/08/13 02:55:40;;;;;;;6.30;4.20;;;;;;;10.28;100.00;97868.09;110542;1241;69168;-68
2023/08/13 02:58:13;;;;;;;5.10;3.90;;;;;;;10.27;100.00;97868.00;110416;1241;69204;-67
2023/08/13 03:00:47;;;;;;;5.60;4.20;;;;;;;10.25;100.00;97869.90;110153;1241;58895;-68
2023/08/13 03:03:19;;;;;;;5.10;3.70;;;;;;;10.23;100.00;97873.48;110299;1242;58911;-68
2023/08/13 03:05:50;;;;;;;4.90;3.40;;;;;;;10.21;100.00;97877.04;110513;1242;70446;-68
2023/08/13 03:08:24;;;;;;;5.90;4.60;;;;;;;10.23;100.00;97882.36;110471;1241;69289;-68
2023/08/13 03:10:59;;;;;;;7.00;4.80;;;;;;;10.22;100.00;97879.79;110462;1249;68221;-68
2023/08/13 03:13:41;;;;;;;7.60;4.80;;;;;;;10.20;100.00;97878.14;110546;1241;58879;-67
2023/08/13 03:16:18;;;;;;;6.20;4.80;;;;;;;10.21;100.00;97883.30;110188;1244;58944;-68
2023/08/13 03:18:51;;;;;;;5.30;3.70;;;;;;;10.23;100.00;97882.70;110430;1241;70430;-67
2023/08/13 03:21:24;;;;;;;6.60;4.20;;;;;;;10.23;100.00;97882.70;110290;1242;69076;-67
2023/08/13 03:23:56;;;;;;;6.50;4.20;;;;;;;10.21;100.00;97885.92;110360;1242;69890;-68
2023/08/13 03:26:27;;;;;;;4.70;3.80;;;;;;;10.19;100.00;97889.04;110463;1242;58898;-68
2023/08/13 03:28:59;;;;;;;5.30;3.80;;;;;;;10.15;100.00;97888.21;110206;1243;58931;-68
2023/08/13 03:31:29;;;;;;;5.00;3.60;;;;;;;10.11;100.00;97887.79;110283;1242;70707;-68
2023/08/13 03:34:09;;;;;;;5.10;3.80;;;;;;;10.08;100.00;97890.27;110425;1243;69194;-68
2023/08/13 03:36:40;;;;;;;4.40;3.90;;;;;;;10.04;100.00;97894.50;110255;1242;69295;-68
2023/08/13 03:39:10;;;;;;;5.90;4.20;;;;;;;10.04;100.00;97893.10;110387;1241;58926;-68
2023/08/13 03:41:39;;;;;;;6.40;4.80;;;;;;;10.07;100.00;97894.52;110217;1242;58937;-68
2023/08/13 03:44:09;;;;;;;6.20;4.20;;;;;;;10.09;100.00;97895.94;110274;1242;70452;-67
2023/08/13 03:46:38;;;;;;;5.40;3.60;;;;;;;10.13;100.00;97894.33;110298;1247;68600;-68
2023/08/13 03:49:08;;;;;;;5.30;4.00;;;;;;;10.14;100.00;97891.97;110243;1242;69341;-68
2023/08/13 03:51:41;;;;;;;4.90;4.20;;;;;;;10.16;100.00;97893.05;110396;1241;58938;-67
2023/08/13 03:54:11;;;;;;;5.80;4.20;;;;;;;10.17;100.00;97893.33;110401;1242;58823;-67
2023/08/13 03:56:43;;;;;;;6.10;4.10;;;;;;;10.20;100.00;97892.61;110467;1240;70616;-68
2023/08/13 03:59:13;;;;;;;6.70;5.20;;;;;;;10.25;100.00;97891.16;110313;1241;69448;-68
2023/08/13 04:01:45;;;;;;;5.10;4.30;;;;;;;10.28;100.00;97893.38;110304;1249;68855;-68
2023/08/13 04:04:21;;;;;;;6.50;4.10;;;;;;;10.31;100.00;97892.30;110530;1242;58884;-68
2023/08/13 04:06:52;;;;;;;5.50;4.20;;;;;;;10.36;100.00;97891.81;110390;1242;58872;-68
2023/08/13 04:09:25;;;;;;;5.20;4.00;;;;;;;10.41;100.00;97895.67;110490;1241;69861;-67
2023/08/13 04:11:55;;;;;;;5.10;3.90;;;;;;;10.51;100.00;97899.56;110422;1248;69122;-68
2023/08/13 04:14:26;;;;;;;4.30;3.60;;;;;;;10.64;100.00;97902.85;110566;1242;69242;-67
2023/08/13 04:16:58;;;;;;;5.20;3.70;;;;;;;10.83;100.00;97904.27;110530;1243;58867;-70
2023/08/13 04:19:29;;;;;;;4.70;3.50;;;;;;;11.09;100.00;97905.28;110321;1243;58800;-69
2023/08/13 04:21:58;;;;;;;5.60;4.50;;;;;;;11.45;100.00;97902.67;110397;1240;70557;-67
2023/08/13 04:24:31;;;;;;;5.30;3.80;;;;;;;11.75;100.00;97905.86;110517;1239;69387;-69
2023/08/13 04:27:00;;;;;;;5.00;3.70;;;;;;;12.00;100.00;97909.41;110468;1243;68443;-70
2023/08/13 04:29:31;;;;;;;7.70;5.60;;;;;;;12.14;100.00;97915.39;110526;1245;58918;-68
2023/08/13 04:32:01;;;;;;;6.40;5.70;;;;;;;12.19;100.00;97915.88;110525;1242;58887;-70
2023/08/13 04:34:31;;;;;;;6.20;5.20;;;;;;;12.22;100.00;97916.90;110369;1242;71152;-70
2023/08/13 04:37:08;;;;;;;8.00;5.50;;;;;;;12.32;100.00;97917.58;110254;1241;68366;-70
2023/08/13 04:39:39;;;;;;;8.20;4.80;;;;;;;12.42;100.00;97920.00;110248;1242;68731;-68
2023/08/13 04:42:10;;;;;;;5.00;4.50;;;;;;;12.53;100.00;97915.23;110525;1241;58990;-70
2023/08/13 04:44:40;;;;;;;5.90;4.70;;;;;;;12.65;100.00;97920.80;110193;1243;58922;-69
2023/08/13 04:47:10;;;;;;;4.80;4.30;;;;;;;12.82;100.00;97919.54;110256;1242;70633;-68
2023/08/13 04:49:41;;;;;;;5.10;4.00;;;;;;;13.09;100.00;97924.22;110455;1241;69078;-68
2023/08/13 04:52:14;;;;;;;4.20;3.50;;;;;;;13.41;100.00;97920.38;110303;1242;69402;-70
2023/08/13 04:54:48;;;;;;;5.80;4.30;;;;;;;13.73;100.00;97925.14;110214;1240;58884;-68
2023/08/13 04:57:18;;;;;;;6.50;4.80;;;;;;;14.05;100.00;97923.15;110244;1242;58932;-69
2023/08/13 04:59:48;;;;;;;5.90;4.60;;;;;;;14.45;100.00;97930.48;110339;1242;71262;-69
2023/08/13 05:02:18;;;;;;;5.50;4.70;;;;;;;14.70;99.61;97932.89;110143;1246;69221;-68
2023/08/13 05:04:49;;;;;;;5.00;4.50;;;;;;;14.99;98.33;97931.94;110204;1242;68486;-69
2023/08/13 05:07:20;;;;;;;6.60;4.90;;;;;;;15.22;98.98;97930.29;110341;1242;58799;-67
2023/08/13 05:09:49;;;;;;;5.40;4.50;;;;;;;15.48;98.84;97929.92;110502;1242;58874;-68
2023/08/13 05:12:19;;;;;;;5.10;4.20;;;;;;;15.75;94.31;97929.77;110174;1242;70683;-70
2023/08/13 05:14:49;;;;;;;5.10;4.20;;;;;;;16.04;93.20;97934.08;110430;1242;68666;-69
2023/08/13 05:17:20;;;;;;;4.90;4.00;;;;;;;16.30;89.92;97935.34;110298;1244;68670;-70
2023/08/13 05:19:51;;;;;;;4.80;4.00;;;;;;;16.67;89.41;97945.42;110410;1241;58932;-67
2023/08/13 05:22:21;;;;;;;6.30;4.50;;;;;;;16.93;87.93;97944.34;110372;1242;58871;-70
2023/08/13 05:24:51;;;;;;;6.30;4.70;;;;;;;17.30;92.61;97947.16;110482;1242;71187;-69
2023/08/13 05:27:20;;;;;;;;;;;;;;;17.51;91.98;97949.45;110515;1248;70063;-70
2023/08/13 05:29:50;;;;;;;5.40;4.20;;;;;;;17.54;83.54;97944.56;110182;1245;69735;-69
2023/08/13 05:32:22;;;;;;;4.70;4.00;;;;;;;18.05;91.53;97943.19;110330;1242;58863;-70
2023/08/13 05:34:51;;;;;;;4.90;3.80;;;;;;;18.54;85.95;97945.67;110121;1245;58856;-69
2023/08/13 05:37:21;;;;;;;;;;;;;;;18.90;83.36;97943.86;110363;1241;69822;-68
2023/08/13 05:39:50;;;;;;;4.60;4.10;;;;;;;19.14;85.53;97945.14;110200;1242;68587;-69
2023/08/13 05:42:21;;;;;;;4.90;4.30;;;;;;;19.54;87.36;97944.86;110375;1240;69172;-69
2023/08/13 05:44:52;;;;;;;4.20;3.80;;;;;;;19.94;83.61;97945.04;110219;1242;58937;-68
2023/08/13 05:47:21;;;;;;;5.50;4.90;;;;;;;20.25;78.78;97940.77;110360;1241;58869;-69
2023/08/13 05:49:50;;;;;;;5.20;4.50;;;;;;;20.16;75.99;97940.27;110333;1241;70868;-68
2023/08/13 05:52:20;;;;;;;4.90;4.20;;;;;;;19.99;75.74;97941.65;110405;1242;70169;-69
2023/08/13 05:54:50;;;;;;;4.60;4.10;;;;;;;20.22;76.10;97942.96;110289;1242;68781;-68
2023/08/13 05:57:19;;;;;;;;;;;;;;;20.59;74.84;97939.10;110349;1242;58934;-69
2023/08/13 05:59:48;;;;;;;5.10;4.10;;;;;;;20.92;75.61;97943.27;110439;1241;59317;-69
2023/08/13 06:02:17;;;;;;;5.70;3.90;;;;;;;21.01;69.74;97941.77;110468;1241;69823;-69
2023/08/13 06:04:46;;;;;;;5.70;4.00;;;;;;;21.17;67.67;97939.69;110427;1241;68575;-69
2023/08/13 06:07:16;;;;;;;5.10;4.30;;;;;;;21.25;66.20;97940.27;110405;1244;69802;-69
2023/08/13 06:09:46;;;;;;;5.50;4.30;;;;;;;21.52;70.42;97943.41;110528;1240;58986;-68
2023/08/13 06:12:15;;;;;;;4.70;4.20;;;;;;;21.53;65.48;97944.34;110488;1241;58924;-69
2023/08/13 06:14:44;;;;;;;4.70;3.70;;;;;;;21.78;64.92;97942.80;110422;1242;70585;-68
2023/08/13 06:17:14;;;;;;;;;;;;;;;21.98;66.17;97938.83;110366;1241;69193;-67
2023/08/13 06:19:43;;;;;;;4.90;4.00;;;;;;;22.17;64.38;97938.30;110424;1241;69302;-69
2023/08/13 06:22:12;;;;;;;4.30;3.90;;;;;;;21.98;60.75;97938.47;110463;1241;58897;-69
2023/08/13 06:24:42;;;;;;;5.10;4.30;;;;;;;22.23;60.69;97939.34;110462;1240;58947;-68
2023/08/13 06:27:12;;;;;;;4.20;3.10;;;;;;;22.61;63.66;97939.40;110399;1241;70376;-70
2023/08/13 06:29:42;;;;;;;4.00;2.90;;;;;;;23.03;62.10;97940.10;110526;1242;68468;-69
2023/08/13 06:32:31;;;;;;;3.90;3.40;;;;;;;23.11;56.39;97946.20;110507;1241;69626;-66
2023/08/13 06:35:01;;;;;;;3.90;3.40;;;;;;;23.20;59.79;97944.81;110404;1241;58934;-70
2023/08/13 06:37:31;;;;;;;4.10;3.70;;;;;;;23.08;55.10;97946.70;110513;1241;58875;-69
2023/08/13 06:40:12;;;;;;;4.50;3.80;;;;;;;23.34;57.50;97952.23;110504;1241;69823;-69
2023/08/13 06:42:42;;;;;;;4.00;3.10;;;;;;;23.47;57.35;97956.98;110439;1241;69595;-67
2023/08/13 06:45:12;;;;;;;4.40;3.00;;;;;;;23.87;57.55;97963.24;110307;1241;68627;-67
2023/08/13 06:47:41;;;;;;;4.40;3.60;;;;;;;24.00;53.19;97962.81;110492;1241;59661;-67
2023/08/13 06:50:11;;;;;;;6.00;3.50;;;;;;;23.84;52.79;97964.26;110276;1242;58879;-68
2023/08/13 06:52:41;;;;;;;4.30;3.30;;;;;;;23.85;53.87;97965.08;110400;1241;69596;-68
2023/08/13 06:55:11;;;;;;;4.10;3.20;;;;;;;23.94;53.71;97966.72;110314;1243;69236;-69
2023/08/13 06:57:39;;;;;;;4.30;3.20;;;;;;;23.79;53.11;97964.78;110438;1241;68289;-66
2023/08/13 07:00:10;;;;;;;4.10;3.70;;;;;;;23.99;53.01;97960.55;110273;1241;58936;-67
2023/08/13 07:02:39;;;;;;;5.80;3.70;;;;;;;23.86;53.45;97963.02;110294;1241;58916;-69
2023/08/13 07:05:11;;;;;;;4.80;3.30;;;;;;;23.80;53.12;97965.95;110252;1242;69995;-67
2023/08/13 07:07:41;;;;;;;4.20;3.60;;;;;;;24.06;53.67;97966.48;110257;1242;68507;-66
2023/08/13 07:10:10;;;;;;;4.60;3.70;;;;;;;24.33;52.61;97963.27;110307;1242;69102;-67
2023/08/13 07:12:39;;;;;;;5.20;4.00;;;;;;;24.20;51.98;97961.54;110240;1241;58946;-67
2023/08/13 07:15:09;;;;;;;;;;;;;;;24.09;51.14;97961.27;110330;1242;59282;-67
2023/08/13 07:17:40;;;;;;;3.70;3.30;;;;;;;24.70;52.56;97962.17;110302;1246;70893;-66
2023/08/13 07:20:13;;;;;;;3.70;3.10;;;;;;;25.13;51.27;97961.34;110233;1242;68821;-69
2023/08/13 07:22:45;;;;;;;4.60;3.20;;;;;;;25.35;49.11;97962.20;110336;1242;69273;-68
2023/08/13 07:25:14;;;;;;;4.20;3.10;;;;;;;25.53;48.94;97958.17;110317;1242;59314;-68
2023/08/13 07:27:44;;;;;;;4.70;3.10;;;;;;;25.75;49.07;97959.44;110272;1242;58897;-66
2023/08/13 07:30:13;;;;;;;3.90;3.50;;;;;;;25.46;48.63;97962.53;110327;1241;71150;-68
2023/08/13 07:32:42;;;;;;;3.90;3.20;;;;;;;25.24;48.53;97963.20;109998;1241;582205;-68
2023/08/13 07:35:12;;;;;;;4.40;3.50;;;;;;;25.23;47.77;97966.95;110289;1243;69841;-67
2023/08/13 07:37:41;;;;;;;4.00;3.10;;;;;;;25.06;47.17;97964.50;110552;1239;58862;-68
2023/08/13 07:40:12;;;;;;;3.70;3.30;;;;;;;24.89;47.19;97965.89;110352;1241;59258;-67
2023/08/13 07:42:42;;;;;;;4.10;3.20;;;;;;;25.06;45.32;97966.20;110395;1241;70832;-68
2023/08/13 07:45:11;;;;;;;3.80;3.30;;;;;;;25.34;46.21;97967.11;110389;1241;69655;-66
2023/08/13 07:47:40;;;;;;;3.10;2.50;;;;;;;25.54;46.76;97968.39;110230;1240;68704;-68
2023/08/13 07:50:10;;;;;;;3.00;2.70;;;;;;;26.17;46.14;97961.41;110262;1241;58931;-67
2023/08/13 07:52:41;;;;;;;3.60;3.10;;;;;;;26.59;44.38;97961.63;110245;1242;58872;-67
2023/08/13 07:55:11;;;;;;;3.40;3.00;;;;;;;27.04;45.69;97960.98;110475;1242;70540;-69
2023/08/13 07:57:40;;;;;;;4.30;3.20;;;;;;;27.55;45.30;97960.04;110392;1241;68435;-67
2023/08/13 08:00:10;;;;;;;3.50;3.20;;;;;;;27.72;44.15;97957.52;110311;1242;69999;-66
2023/08/13 08:02:39;;;;;;;3.70;3.30;;;;;;;27.75;42.41;97957.00;110249;1241;59279;-65
2023/08/13 08:05:10;;;;;;;4.10;2.70;;;;;;;27.31;42.89;97955.27;110422;1241;58872;-66
2023/08/13 08:07:39;;;;;;;4.10;3.30;;;;;;;27.59;43.24;97953.67;110511;1240;71647;-68
2023/08/13 08:10:08;;;;;;;3.50;3.10;;;;;;;27.74;42.58;97953.94;110643;1241;69667;-69
2023/08/13 08:12:37;;;;;;;3.60;2.80;;;;;;;27.82;43.27;97955.77;110417;1239;69323;-67
2023/08/13 08:15:07;;;;;;;3.40;2.80;;;;;;;27.92;42.19;97953.01;110332;1241;58930;-68
2023/08/13 08:17:37;;;;;;;3.40;2.70;;;;;;;27.56;41.50;97947.94;110393;1241;58848;-67
2023/08/13 08:20:07;;;;;;;3.70;2.60;;;;;;;27.98;41.24;97949.33;110343;1240;69809;-67
2023/08/13 08:22:37;;;;;;;3.90;2.90;;;;;;;28.06;40.76;97944.33;110265;1242;69253;-68
2023/08/13 08:25:10;;;;;;;3.60;3.20;;;;;;;28.38;41.15;97943.14;110254;1240;69201;-67
2023/08/13 08:27:40;;;;;;;4.00;2.80;;;;;;;28.78;41.81;97941.73;110313;1243;58892;-68
2023/08/13 08:30:10;;;;;;;3.80;3.20;;;;;;;28.52;39.56;97941.61;110285;1242;58874;-66
2023/08/13 08:32:39;;;;;;;4.00;2.70;;;;;;;28.31;39.67;97936.82;110252;1242;71524;-66
2023/08/13 08:35:08;;;;;;;;;;;;;;;28.42;39.15;97934.63;110232;1242;69251;-69
2023/08/13 08:37:37;;;;;;;3.60;2.80;;;;;;;27.93;38.09;97938.70;110224;1241;69876;-67
2023/08/13 08:40:07;;;;;;;3.40;2.90;;;;;;;27.69;39.16;97935.70;110268;1241;58887;-66
2023/08/13 08:42:41;;;;;;;3.40;1.90;;;;;;;28.27;39.78;97936.98;110234;1244;58840;-67
2023/08/13 08:45:11;;;;;;;3.00;2.70;;;;;;;28.72;38.40;97933.39;110252;1242;70427;-67
2023/08/13 08:47:41;;;;;;;3.70;3.10;;;;;;;28.86;36.90;97930.42;110266;1242;69400;-66
2023/08/13 08:50:14;;;;;;;3.70;3.10;;;;;;;29.29;36.88;97932.63;110227;1242;69329;-68
2023/08/13 08:52:44;;;;;;;4.20;3.00;;;;;;;29.47;35.10;97935.15;110226;1240;58944;-66
2023/08/13 08:55:12;;;;;;;3.20;2.80;;;;;;;29.46;36.44;97934.08;110284;1241;58935;-66
2023/08/13 08:57:41;;;;;;;3.50;2.80;;;;;;;29.62;34.17;97929.34;110203;1242;70394;-67
2023/08/13 09:00:11;;;;;;;3.80;3.40;;;;;;;29.81;34.69;97931.84;110288;1243;69863;-66
2023/08/13 09:02:41;;;;;;;3.10;2.50;;;;;;;30.09;34.65;97930.81;110272;1242;69288;-67
2023/08/13 09:05:11;;;;;;;3.30;3.00;;;;;;;30.16;33.26;97928.77;110205;1242;59213;-67
2023/08/13 09:07:42;;;;;;;3.70;3.00;;;;;;;30.50;33.63;97926.35;110276;1241;58821;-66
2023/08/13 09:10:11;;;;;;;3.30;2.70;;;;;;;30.56;34.15;97926.19;110289;1240;70569;-66
2023/08/13 09:12:42;;;;;;;2.90;2.60;;;;;;;30.52;34.15;97921.63;110277;1244;69386;-68
2023/08/13 09:15:12;;;;;;;4.20;3.00;;;;;;;31.02;34.21;97919.65;110246;1242;69728;-66
2023/08/13 09:17:42;;;;;;;3.20;2.60;;;;;;;31.49;33.76;97922.80;110220;1244;58929;-68
2023/08/13 09:20:19;;;;;;;3.20;2.80;;;;;;;31.98;33.19;97920.90;110271;1240;58954;-68
2023/08/13 09:22:50;;;;;;;4.60;3.20;;;;;;;32.43;31.76;97920.80;110311;1241;70601;-67
2023/08/13 09:25:20;;;;;;;3.00;2.70;;;;;;;32.56;31.25;97918.73;110230;1240;69197;-67
2023/08/13 09:27:50;;;;;;;2.60;2.40;;;;;;;32.66;31.18;97914.94;110218;1241;68625;-67
2023/08/13 09:30:27;;;;;;;7.60;2.80;;;;;;;32.77;31.11;97912.44;110291;1242;58889;-68
2023/08/13 09:32:59;;;;;;;3.40;2.90;;;;;;;32.93;30.68;97909.06;110316;1241;58887;-67
2023/08/13 09:35:28;;;;;;;2.90;2.50;;;;;;;32.90;29.46;97911.68;110292;1242;70629;-67
2023/08/13 09:38:01;;;;;;;3.00;2.30;;;;;;;32.84;28.88;97909.39;110223;1242;70315;-68
2023/08/13 09:40:30;;;;;;;2.70;2.20;;;;;;;32.47;29.77;97910.44;110247;1242;69837;-68
2023/08/13 09:43:09;;;;;;;3.50;2.50;;;;;;;32.68;30.75;97905.70;110210;1243;58940;-68
2023/08/13 09:45:39;;;;;;;3.80;3.30;;;;;;;33.17;30.38;97909.24;110228;1242;58849;-67
2023/08/13 09:48:13;;;;;;;4.20;3.10;;;;;;;33.27;29.44;97910.42;110259;1242;70729;-68
2023/08/13 09:50:42;;;;;;;3.50;2.80;;;;;;;33.18;29.30;97908.50;110233;1241;68065;-66
2023/08/13 09:53:14;;;;;;;4.10;3.00;;;;;;;33.11;29.74;97902.98;110209;1241;68918;-68
2023/08/13 09:55:50;;;;;;;4.10;3.00;;;;;;;33.08;29.36;97903.33;110354;1242;58870;-68
2023/08/13 09:58:20;;;;;;;3.90;3.40;;;;;;;32.82;29.76;97899.33;110191;1243;58840;-69
2023/08/13 10:00:50;;;;;;;3.00;2.60;;;;;;;32.76;29.30;97891.64;110234;1242;71151;-68
2023/08/13 10:03:19;;;;;;;4.90;3.20;;;;;;;32.60;30.01;97891.84;110296;1246;70177;-68
2023/08/13 10:05:49;;;;;;;3.10;2.80;;;;;;;33.02;30.42;97891.43;110272;1242;69193;-68
2023/08/13 10:08:19;;;;;;;4.00;3.60;;;;;;;33.20;30.48;97890.00;110277;1242;58887;-65
2023/08/13 10:10:49;;;;;;;3.70;3.20;;;;;;;33.41;29.32;97890.04;110254;1242;58846;-67
2023/08/13 10:13:19;;;;;;;3.60;3.20;;;;;;;33.61;29.58;97887.97;110211;1242;70101;-68
2023/08/13 10:15:49;;;;;;;4.70;4.10;;;;;;;33.72;28.89;97891.27;110265;1242;69186;-68
2023/08/13 10:18:18;;;;;;;5.80;5.30;;;;;;;31.90;29.50;97887.70;110254;1241;69137;-68
2023/08/13 10:20:48;;;;;;;7.00;6.30;;;;;;;31.75;29.68;97886.73;110316;1242;58951;-67
2023/08/13 10:23:18;;;;;;;3.90;3.50;;;;;;;31.18;30.41;97882.94;110293;1240;58957;-67
2023/08/13 10:25:52;;;;;;;3.50;3.20;;;;;;;31.15;29.88;97877.30;110227;1242;71517;-66
2023/08/13 10:28:32;;;;;;;4.00;3.20;;;;;;;31.99;30.45;97877.12;110261;1241;69290;-67
2023/08/13 10:31:24;;;;;;;3.30;2.80;;;;;;;33.08;30.58;97881.72;110257;1242;69938;-67
2023/08/13 10:34:05;;;;;;;3.50;2.50;;;;;;;34.02;29.46;97882.40;110284;1241;58845;-67
2023/08/13 10:36:46;;;;;;;4.30;2.90;;;;;;;34.15;27.13;97880.02;110274;1242;58864;-67
2023/08/13 10:39:37;;;;;;;3.20;2.70;;;;;;;33.65;26.27;97883.67;110323;1241;71119;-67
2023/08/13 10:42:36;;;;;;;2.90;2.30;;;;;;;34.18;26.91;97878.11;110261;1242;69263;-67
2023/08/13 10:45:09;;;;;;;2.90;2.60;;;;;;;34.60;27.35;97873.94;110219;1242;69305;-67
2023/08/13 10:47:52;;;;;;;3.10;2.30;;;;;;;34.59;25.86;97872.26;110281;1242;58866;-68
2023/08/13 10:50:28;;;;;;;2.60;2.20;;;;;;;35.47;26.39;97871.80;110286;1242;58939;-68
2023/08/13 10:53:11;;;;;;;2.40;2.00;;;;;;;35.83;26.16;97870.04;110260;1241;70524;-67
2023/08/13 10:55:40;;;;;;;2.10;1.80;;;;;;;35.50;25.57;97868.24;110259;1242;69807;-66
2023/08/13 10:58:25;;;;;;;2.30;1.80;;;;;;;35.35;26.18;97862.40;110276;1242;69322;-67
2023/08/13 11:01:02;;;;;;;2.20;2.00;;;;;;;35.97;25.47;97862.25;110230;1242;58953;-67
2023/08/13 11:03:32;;;;;;;2.90;2.60;;;;;;;35.96;25.42;97860.77;110248;1242;58921;-67
2023/08/13 11:06:03;;;;;;;2.90;2.30;;;;;;;35.62;25.03;97857.94;110166;1244;71151;-67
2023/08/13 11:08:32;;;;;;;2.30;2.10;;;;;;;36.13;25.64;97859.06;110313;1242;69833;-68
2023/08/13 11:11:05;;;;;;;2.20;1.80;;;;;;;36.38;25.04;97858.46;110288;1240;69104;-67
2023/08/13 11:13:35;;;;;;;2.50;2.10;;;;;;;35.89;25.45;97858.98;110330;1242;58934;-67
2023/08/13 11:16:05;;;;;;;3.30;2.10;;;;;;;36.35;24.57;97857.63;110249;1241;58911;-67
2023/08/13 11:18:36;;;;;;;4.00;2.80;;;;;;;36.29;24.46;97859.30;110285;1242;70551;-68
2023/08/13 11:21:06;;;;;;;4.10;2.90;;;;;;;35.85;25.15;97856.89;110262;1242;69774;-68
2023/08/13 11:23:35;;;;;;;2.50;2.00;;;;;;;35.44;24.77;97854.59;110280;1240;69465;-68
2023/08/13 11:26:08;;;;;;;2.80;2.20;;;;;;;35.38;24.49;97853.51;110296;1242;58870;-67
2023/08/13 11:28:37;;;;;;;2.30;2.00;;;;;;;34.79;24.57;97851.44;110308;1242;58874;-67
2023/08/13 11:31:07;;;;;;;2.00;1.70;;;;;;;35.44;25.88;97848.88;110294;1242;71478;-67
2023/08/13 11:33:37;;;;;;;3.40;2.40;;;;;;;35.36;25.05;97846.92;110266;1242;69789;-67
2023/08/13 11:36:06;;;;;;;3.00;2.20;;;;;;;35.29;24.42;97844.96;110211;1242;69329;-67
2023/08/13 11:38:35;;;;;;;3.10;2.50;;;;;;;34.78;24.21;97839.77;110255;1241;58876;-68
2023/08/13 11:41:12;;;;;;;2.60;2.20;;;;;;;35.07;24.91;97837.66;110278;1242;58963;-68
2023/08/13 11:43:41;;;;;;;3.50;2.30;;;;;;;35.08;25.47;97836.90;110249;1242;70670;-68
2023/08/13 11:46:11;;;;;;;2.40;2.10;;;;;;;35.33;23.93;97834.89;110268;1242;69254;-67